Sutton, Nebraska
Current Conditions -  °F | °C
As of 2:15 PM on Wednesday 28 Jan 2015 (Local Time) from KAUH Reporting Station
Clear Clear  
Wind Chill: 65°   Ceiling: Unl
Heat Index: 65°   Visibility: 10mi
Dew Point: 34°   Wind: 14mph
Humidity: 32%   Direction: 310°NW
Pressure: 29.69"   Gusts: 20mph
Location:  40.61°N, 97.86°W
Report Text: KAUH 282015Z AUTO 31012G17KT 10SM CLR 18/01 A2969 RMK AO2 T01810011
Loading
Personal Weather Stations






























Interactive Weather Map New forecast layout! Learn more

10-Day Weather Forecast

Advertisements
Track Severe Weather on mobile